createdAt,value
2023-04-23T00:10:57.112Z,95.0
2023-04-23T00:23:56.164Z,95.0
2023-04-23T00:36:56.178Z,96.0
2023-04-23T00:49:56.191Z,96.0
2023-04-23T01:02:56.305Z,95.0
2023-04-23T01:15:56.198Z,95.0
2023-04-23T01:52:56.201Z,96.0
2023-04-23T02:05:56.197Z,96.0
2023-04-23T02:18:56.208Z,96.0
2023-04-23T02:31:56.249Z,96.0
2023-04-23T02:44:56.232Z,95.0
2023-04-23T02:57:56.228Z,95.0
2023-04-23T03:10:56.222Z,95.0
2023-04-23T03:23:56.226Z,95.0
2023-04-23T03:36:56.234Z,95.0
2023-04-23T05:35:56.328Z,91.0
2023-04-23T05:49:56.323Z,88.0
2023-04-23T06:03:56.430Z,86.0
2023-04-23T06:17:56.350Z,85.0
2023-04-23T06:33:56.337Z,84.0
2023-04-23T06:47:56.352Z,81.0
2023-04-23T07:31:56.390Z,79.0
2023-04-23T07:45:56.402Z,73.0
2023-04-23T10:12:56.425Z,58.0
2023-04-23T10:38:58.194Z,52.0
2023-04-23T11:03:56.552Z,53.0
2023-04-23T11:17:56.550Z,53.0
2023-04-23T11:46:58.433Z,48.0
2023-04-23T12:27:56.551Z,45.0
2023-04-23T12:52:56.569Z,52.0
2023-04-23T13:06:56.565Z,52.0
2023-04-23T13:34:56.638Z,41.0
2023-04-23T13:48:56.587Z,43.0
2023-04-23T14:02:56.638Z,46.0
2023-04-23T14:16:56.587Z,43.0
2023-04-23T14:30:56.612Z,41.0
2023-04-23T14:44:56.600Z,41.0
2023-04-23T14:58:56.620Z,44.0
2023-04-23T15:12:56.593Z,45.0
2023-04-23T15:27:56.763Z,46.0
2023-04-23T15:52:56.627Z,44.0
2023-04-23T16:09:56.610Z,46.0
2023-04-23T16:23:56.622Z,49.0
2023-04-23T16:50:56.644Z,51.0
2023-04-23T17:05:56.625Z,52.0
2023-04-23T17:28:56.643Z,56.0
2023-04-23T17:42:56.643Z,61.0
2023-04-23T17:56:56.635Z,64.0
2023-04-23T18:58:56.666Z,80.0
2023-04-23T19:11:56.676Z,81.0
2023-04-23T19:24:56.679Z,83.0
2023-04-23T19:37:56.666Z,83.0
2023-04-23T19:54:56.673Z,85.0
2023-04-23T20:08:56.680Z,86.0
2023-04-23T20:21:56.677Z,83.0
2023-04-23T20:34:56.690Z,82.0
2023-04-23T20:47:56.724Z,85.0
2023-04-23T21:00:56.770Z,86.0
2023-04-23T21:13:57.268Z,87.0
2023-04-23T21:26:56.709Z,87.0
2023-04-23T21:39:56.701Z,88.0
2023-04-23T21:52:56.716Z,88.0
2023-04-23T22:05:56.711Z,86.0
2023-04-23T22:18:56.740Z,83.0
2023-04-23T22:31:56.757Z,83.0
2023-04-23T22:44:56.723Z,83.0
2023-04-23T22:57:56.722Z,86.0
2023-04-23T23:10:56.749Z,89.0
2023-04-23T23:23:56.739Z,90.0
2023-04-23T23:36:56.745Z,89.0
2023-04-23T23:49:56.756Z,89.0
